Huvudsida
METAR-TAF:

METAR-TAF

Flygplatser :

Šiauliai internationella flygplats

Šiauliai, Litauen

latitud: 55-53-38N, longitud: 023-23-42E, höjd: 135 m

Aktuellt väderrapport

Denna rapport gjordes för 10 minuter sedan, klockan 11:50 UTC
Vind 3 kt från väst, varierande mellan sydväst och nordväst
Temperatur 23°C
Fuktighet 53%
Tryck 1020 hPa
Sikt 10 km eller mer
Få moln på en höjd av 3700 ft
Spridda moln på en höjd av 4200 ft

METAR: EYSA 161150Z 27003KT 230V320 9999 FEW037 SCT042 23/13 Q1020 BLU NOSIG

Tid: 15:00 (12:00 UTC)

Väderprognos

Denna rapport gjordes för 58 minuter sedan, klockan 11:02 UTC
Prognos gäller från 16 kl. 12 UTC till 16 kl. 21 UTC
Vind 4 kt varierande vindriktning
Sikt 10 km eller mer
Brutna moln på en höjd av 3500 ft

TAF: EYSA 161102Z 1612/1621 VRB04KT 9999 BKN035

Aktuella väderrapporter och prognoser från 4000 flygplatser (METAR- och TAF-rapporter).

De tillgängliga stationerna syns som gula och röda prickar på kartan.

För musen över prickarna för att se namnen på stationerna.

Klicka sedan för att få väderrapporter och prognoser.

För att ändra kartan: Klicka på de gröna knapparna med ett svart kors på för att zooma in; den gröna knappen med ett streck på för att zooma ut; eller på de gröna pilarna för angränsande kartor.


METAR-TAF: